2022年8月14日

时间 代码 天气 温度 能见度 天花板 METAR/SPECI
02:00
M
24 °C 6 km 6.400 ft 250° 250° 9 - 22 kt METAR LFSL 140000Z AUTO 25009G22KT 160V320 6000 -TSRA FEW025/// SCT036/// BKN064/// ///CB 24/20 Q1011
01:30
V
26 °C 10 km+ - Var Var 3 kt METAR LFSL 132330Z AUTO VRB03KT 9999 VCTS ///CB 26/19 Q1010
01:00
V
27 °C 10 km+ - 220° 220° 7 kt METAR LFSL 132300Z AUTO 22007KT 190V280 CAVOK 27/18 Q1010
00:30
V
28 °C 10 km+ - 260° 260° 6 kt METAR LFSL 132230Z AUTO 26006KT 200V310 CAVOK 28/17 Q1010
00:00
V
29 °C 10 km+ - Var Var 3 kt METAR LFSL 132200Z AUTO VRB03KT CAVOK 29/16 Q1010

2022年8月13日

时间 代码 天气 温度 能见度 天花板 METAR/SPECI
23:30
V
29 °C 10 km+ - Var Var 3 kt METAR LFSL 132130Z AUTO VRB03KT CAVOK 29/16 Q1010
23:00
V
27 °C 10 km+ - Var Var 1 kt METAR LFSL 132100Z AUTO VRB01KT CAVOK 27/15 Q1010
22:30
V
27 °C 10 km+ - 210° 210° 2 kt METAR LFSL 132030Z AUTO 21002KT CAVOK 27/15 Q1009
22:00
V
28 °C 10 km+ - Var 000° 0 kt METAR LFSL 132000Z AUTO 00000KT CAVOK 28/15 Q1010 TEMPO 24015G30KT 4000 TSRAGR SCT010 BKN070CB
21:30
V
30 °C 10 km+ - 290° 290° 2 kt METAR LFSL 131930Z AUTO 29002KT CAVOK 30/15 Q1009 TEMPO 24015G30KT 4000 TSRAGR SCT010 BKN070CB
21:00
V
32 °C 10 km+ - Var Var 2 kt METAR LFSL 131900Z AUTO VRB02KT CAVOK 32/15 Q1010 NOSIG
20:30
V
33 °C 10 km+ - 270° 270° 3 kt METAR LFSL 131830Z AUTO 27003KT 220V300 CAVOK 33/14 Q1010 NOSIG
20:00
V
34 °C 10 km+ - Var Var 2 kt METAR LFSL 131800Z AUTO VRB02KT CAVOK 34/15 Q1010 NOSIG
19:30
V
35 °C 10 km+ - 330° 330° 3 kt METAR LFSL 131730Z AUTO 33003KT 280V010 CAVOK 35/15 Q1009 NOSIG
19:00
V
35 °C 10 km+ - 310° 310° 4 kt METAR LFSL 131700Z AUTO 31004KT 270V350 CAVOK 35/15 Q1010 NOSIG
18:30
V
35 °C 10 km+ - 340° 340° 5 kt METAR LFSL 131630Z AUTO 34005KT 280V040 CAVOK 35/15 Q1010 NOSIG
18:00
V
36 °C 10 km+ - 340° 340° 5 kt METAR LFSL 131600Z AUTO 34005KT 290V050 CAVOK 36/15 Q1010 NOSIG
17:30
V
35 °C 10 km+ - Var Var 5 kt METAR LFSL 131530Z AUTO VRB05KT CAVOK 35/15 Q1010 NOSIG
17:00
V
36 °C 10 km+ - Var Var 3 kt METAR LFSL 131500Z AUTO VRB03KT CAVOK 36/15 Q1010 NOSIG
16:30
V
36 °C 10 km+ - Var Var 3 kt METAR LFSL 131430Z AUTO VRB03KT CAVOK 36/15 Q1011 NOSIG
16:00
V
35 °C 10 km+ - Var Var 3 kt METAR LFSL 131400Z AUTO VRB03KT CAVOK 35/15 Q1011 NOSIG
15:30
V
35 °C 10 km+ - Var Var 4 kt METAR LFSL 131330Z AUTO VRB04KT CAVOK 35/15 Q1012 NOSIG
15:00
V
35 °C 10 km+ - Var Var 3 kt METAR LFSL 131300Z AUTO VRB03KT CAVOK 35/15 Q1012 NOSIG
14:30
V
33 °C 10 km+ - 060° 060° 5 kt METAR LFSL 131230Z AUTO 06005KT 020V110 CAVOK 33/15 Q1012 NOSIG
14:00
V
32 °C 10 km+ - Var Var 3 kt METAR LFSL 131200Z AUTO VRB03KT CAVOK 32/16 Q1012 NOSIG
13:30
V
32 °C 10 km+ - Var Var 3 kt METAR LFSL 131130Z AUTO VRB03KT CAVOK 32/17 Q1013 NOSIG
13:00
V
31 °C 10 km+ - 180° 180° 3 kt METAR LFSL 131100Z AUTO 18003KT 090V260 CAVOK 31/18 Q1013 NOSIG
12:30
V
29 °C 10 km+ - Var Var 3 kt METAR LFSL 131030Z AUTO VRB03KT CAVOK 29/18 Q1013 NOSIG
12:00
V
28 °C 10 km+ - Var Var 3 kt METAR LFSL 131000Z AUTO VRB03KT CAVOK 28/18 Q1013 NOSIG
11:30
V
27 °C 10 km+ - Var Var 4 kt METAR LFSL 130930Z AUTO VRB04KT CAVOK 27/18 Q1013 NOSIG
11:00
V
26 °C 10 km+ - Var Var 3 kt METAR LFSL 130900Z AUTO VRB03KT CAVOK 26/18 Q1013 NOSIG
10:30
V
25 °C 10 km+ - Var Var 3 kt METAR LFSL 130830Z AUTO VRB03KT CAVOK 25/18 Q1013 NOSIG
10:00
V
24 °C 10 km+ - Var Var 3 kt METAR LFSL 130800Z AUTO VRB03KT CAVOK 24/18 Q1013 NOSIG
09:30
V
23 °C 10 km+ - Var Var 1 kt METAR LFSL 130730Z AUTO VRB01KT CAVOK 23/18 Q1013 NOSIG
09:00
V
22 °C 10 km+ - Var Var 2 kt METAR LFSL 130700Z AUTO VRB02KT CAVOK 22/18 Q1013 NOSIG
08:30
V
21 °C 10 km+ - Var Var 2 kt METAR LFSL 130630Z AUTO VRB02KT CAVOK 21/18 Q1013 NOSIG
08:00
V
20 °C 10 km+ - Var 000° 0 kt METAR LFSL 130600Z AUTO 00000KT CAVOK 20/15 Q1013 NOSIG
07:30
V
18 °C 10 km+ - Var 000° 0 kt METAR LFSL 130530Z AUTO 00000KT CAVOK 18/13 Q1013 NOSIG
07:00
V
17 °C 10 km+ - 220° 220° 2 kt METAR LFSL 130500Z AUTO 22002KT CAVOK 17/12 Q1013 NOSIG
06:30
V
18 °C 10 km+ - Var 000° 0 kt METAR LFSL 130430Z AUTO 00000KT CAVOK 18/13 Q1013 NOSIG
06:00
V
19 °C 10 km+ - Var Var 2 kt METAR LFSL 130400Z AUTO VRB02KT CAVOK 19/12 Q1012 NOSIG
05:30
V
20 °C 10 km+ - 290° 290° 3 kt METAR LFSL 130330Z AUTO 29003KT CAVOK 20/12 Q1012 NOSIG
05:00
V
22 °C 10 km+ - 300° 300° 4 kt METAR LFSL 130300Z AUTO 30004KT 250V330 CAVOK 22/12 Q1013 NOSIG
04:30
V
22 °C 10 km+ - 300° 300° 4 kt METAR LFSL 130230Z AUTO 30004KT CAVOK 22/11 Q1012 NOSIG
04:00
V
21 °C 10 km+ - Var Var 2 kt METAR LFSL 130200Z AUTO VRB02KT CAVOK 21/11 Q1012
03:30
V
21 °C 10 km+ - Var Var 2 kt METAR LFSL 130130Z AUTO VRB02KT CAVOK 21/11 Q1012
03:00
V
21 °C 10 km+ - Var 000° 0 kt METAR LFSL 130100Z AUTO 00000KT CAVOK 21/11 Q1012
02:30
V
22 °C 10 km+ - Var 000° 0 kt METAR LFSL 130030Z AUTO 00000KT CAVOK 22/11 Q1012
02:00
V
23 °C 10 km+ - Var Var 1 kt METAR LFSL 130000Z AUTO VRB01KT CAVOK 23/10 Q1012
01:30
V
25 °C 10 km+ - Var 000° 0 kt METAR LFSL 122330Z AUTO 00000KT CAVOK 25/11 Q1012
01:00
V
26 °C 10 km+ - 330° 330° 4 kt METAR LFSL 122300Z AUTO 33004KT CAVOK 26/11 Q1012
00:30
V
29 °C 10 km+ - 340° 340° 6 kt METAR LFSL 122230Z AUTO 34006KT CAVOK 29/11 Q1012
00:00
V
28 °C 10 km+ - 330° 330° 6 kt METAR LFSL 122200Z AUTO 33006KT CAVOK 28/11 Q1012

2022年8月12日

时间 代码 天气 温度 能见度 天花板 METAR/SPECI
23:30
V
30 °C 10 km+ - 340° 340° 6 kt METAR LFSL 122130Z AUTO 34006KT CAVOK 30/10 Q1012
23:00
V
30 °C 10 km+ - 340° 340° 4 kt METAR LFSL 122100Z AUTO 34004KT CAVOK 30/11 Q1012
22:30
V
30 °C 10 km+ - 350° 350° 4 kt METAR LFSL 122030Z AUTO 35004KT CAVOK 30/12 Q1012
22:00
V
28 °C 10 km+ - 320° 320° 2 kt METAR LFSL 122000Z AUTO 32002KT CAVOK 28/12 Q1012 NOSIG
21:30
V
31 °C 10 km+ - Var Var 2 kt METAR LFSL 121930Z AUTO VRB02KT CAVOK 31/12 Q1011 NOSIG
21:00
V
34 °C 10 km+ - 350° 350° 3 kt METAR LFSL 121900Z AUTO 35003KT CAVOK 34/11 Q1011 NOSIG
20:30
V
35 °C 10 km+ - 350° 350° 7 kt METAR LFSL 121830Z AUTO 35007KT CAVOK 35/11 Q1011 NOSIG
20:00
V
36 °C 10 km+ - 350° 350° 9 kt METAR LFSL 121800Z AUTO 35009KT 320V020 CAVOK 36/11 Q1011 NOSIG
19:30
V
37 °C 10 km+ - 340° 340° 9 kt METAR LFSL 121730Z AUTO 34009KT 280V020 CAVOK 37/11 Q1011 NOSIG
19:00
V
38 °C 10 km+ - 340° 340° 8 kt METAR LFSL 121700Z AUTO 34008KT 290V010 CAVOK 38/12 Q1011 NOSIG
18:30
V
38 °C 10 km+ - 320° 320° 9 kt METAR LFSL 121630Z AUTO 32009KT 260V020 CAVOK 38/12 Q1011 NOSIG
18:00
V
38 °C 10 km+ - 340° 340° 8 kt METAR LFSL 121600Z AUTO 34008KT 280V060 CAVOK 38/11 Q1011 NOSIG
17:30
V
38 °C 10 km+ - 340° 340° 7 kt METAR LFSL 121530Z AUTO 34007KT 260V070 CAVOK 38/11 Q1011 NOSIG
17:00
V
38 °C 10 km+ - 310° 310° 6 kt METAR LFSL 121500Z AUTO 31006KT 220V360 CAVOK 38/12 Q1012 NOSIG
16:30
V
38 °C 10 km+ - 320° 320° 9 kt METAR LFSL 121430Z AUTO 32009KT 250V010 CAVOK 38/12 Q1012 NOSIG
16:00
V
38 °C 10 km+ - 330° 330° 11 kt METAR LFSL 121400Z AUTO 33011KT 280V040 CAVOK 38/13 Q1012 NOSIG
15:30
V
38 °C 10 km+ - 330° 330° 10 kt METAR LFSL 121330Z AUTO 33010KT 300V360 CAVOK 38/12 Q1012 NOSIG
15:00
V
37 °C 10 km+ - Var Var 6 kt METAR LFSL 121300Z AUTO VRB06KT CAVOK 37/13 Q1012 NOSIG
14:30
V
37 °C 10 km+ - 310° 310° 8 kt METAR LFSL 121230Z AUTO 31008KT 210V360 CAVOK 37/12 Q1013 NOSIG
14:00
V
36 °C 10 km+ - 330° 330° 7 kt METAR LFSL 121200Z AUTO 33007KT 260V030 CAVOK 36/12 Q1013 NOSIG
13:30
V
36 °C 10 km+ - 310° 310° 6 kt METAR LFSL 121130Z AUTO 31006KT 250V030 CAVOK 36/12 Q1013 NOSIG
13:00
V
35 °C 10 km+ - 300° 300° 5 kt METAR LFSL 121100Z AUTO 30005KT 250V360 CAVOK 35/11 Q1013 NOSIG
12:30
V
34 °C 10 km+ - 300° 300° 7 kt METAR LFSL 121030Z AUTO 30007KT 270V350 CAVOK 34/13 Q1014 NOSIG
12:00
V
33 °C 10 km+ - 310° 310° 5 kt METAR LFSL 121000Z AUTO 31005KT 220V350 CAVOK 33/15 Q1014 NOSIG
11:30
V
32 °C 10 km+ - Var Var 2 kt METAR LFSL 120930Z AUTO VRB02KT CAVOK 32/17 Q1014 NOSIG
11:00
V
30 °C 10 km+ - Var Var 2 kt METAR LFSL 120900Z AUTO VRB02KT CAVOK 30/17 Q1014 NOSIG
10:30
V
29 °C 10 km+ - 180° 180° 4 kt METAR LFSL 120830Z AUTO 18004KT 110V250 CAVOK 29/17 Q1014 NOSIG
10:00
V
28 °C 10 km+ - 180° 180° 4 kt METAR LFSL 120800Z AUTO 18004KT 090V240 CAVOK 28/16 Q1014 NOSIG
09:30
V
27 °C 10 km+ - 100° 100° 6 kt METAR LFSL 120730Z AUTO 10006KT CAVOK 27/13 Q1014 NOSIG
09:00
V
26 °C 10 km+ - 120° 120° 5 kt METAR LFSL 120700Z AUTO 12005KT 100V180 CAVOK 26/12 Q1014 NOSIG
08:30
V
24 °C 10 km+ - 120° 120° 5 kt METAR LFSL 120630Z AUTO 12005KT CAVOK 24/12 Q1014 NOSIG
08:00
V
22 °C 10 km+ - 130° 130° 4 kt METAR LFSL 120600Z AUTO 13004KT CAVOK 22/11 Q1014 NOSIG
07:30
V
20 °C 10 km+ - 120° 120° 3 kt METAR LFSL 120530Z AUTO 12003KT CAVOK 20/11 Q1014 NOSIG
07:00
V
19 °C 10 km+ - Var Var 2 kt METAR LFSL 120500Z AUTO VRB02KT CAVOK 19/11 Q1014 NOSIG
06:30
V
18 °C 10 km+ - Var Var 2 kt METAR LFSL 120430Z AUTO VRB02KT CAVOK 18/11 Q1013 NOSIG
06:00
V
19 °C 10 km+ - Var 000° 0 kt METAR LFSL 120400Z AUTO 00000KT CAVOK 19/11 Q1014 NOSIG
05:30
V
19 °C 10 km+ - 090° 090° 1 kt METAR LFSL 120330Z AUTO 09001KT CAVOK 19/11 Q1014 NOSIG
05:00
V
20 °C 10 km+ - Var 000° 0 kt METAR LFSL 120300Z AUTO 00000KT CAVOK 20/11 Q1014 NOSIG
04:30
V
20 °C 10 km+ - Var 000° 0 kt METAR LFSL 120230Z AUTO 00000KT CAVOK 20/11 Q1014
04:00
V
20 °C 10 km+ - 130° 130° 1 kt METAR LFSL 120200Z AUTO 13001KT CAVOK 20/11 Q1014
03:30
V
20 °C 10 km+ - Var Var 2 kt METAR LFSL 120130Z AUTO VRB02KT CAVOK 20/11 Q1014
03:00
V
21 °C 10 km+ - Var Var 1 kt METAR LFSL 120100Z AUTO VRB01KT CAVOK 21/11 Q1014
02:30
V
21 °C 10 km+ - Var 000° 0 kt METAR LFSL 120030Z AUTO 00000KT CAVOK 21/11 Q1014
02:00
V
21 °C 10 km+ - Var 000° 0 kt METAR LFSL 120000Z AUTO 00000KT CAVOK 21/11 Q1014
01:30
V
22 °C 10 km+ - Var 000° 0 kt METAR LFSL 112330Z AUTO 00000KT CAVOK 22/11 Q1014
01:00
V
23 °C 10 km+ - Var 000° 0 kt METAR LFSL 112300Z AUTO 00000KT CAVOK 23/12 Q1014
00:30
V
23 °C 10 km+ - Var 000° 0 kt METAR LFSL 112230Z AUTO 00000KT CAVOK 23/11 Q1014
00:00
V
23 °C 10 km+ - Var 000° 0 kt METAR LFSL 112200Z AUTO 00000KT CAVOK 23/11 Q1014

2022年8月11日

时间 代码 天气 温度 能见度 天花板 METAR/SPECI
23:30
V
24 °C 10 km+ - 290° 290° 1 kt METAR LFSL 112130Z AUTO 29001KT CAVOK 24/11 Q1014
23:00
V
24 °C 10 km+ - Var 000° 0 kt METAR LFSL 112100Z AUTO 00000KT CAVOK 24/12 Q1014
22:30
V
25 °C 10 km+ - Var 000° 0 kt METAR LFSL 112030Z AUTO 00000KT CAVOK 25/12 Q1014
22:00
V
27 °C 10 km+ - Var 000° 0 kt METAR LFSL 112000Z AUTO 00000KT CAVOK 27/12 Q1014 NOSIG
21:30
V
30 °C 10 km+ - Var 000° 0 kt METAR LFSL 111930Z AUTO 00000KT CAVOK 30/12 Q1013 NOSIG
21:00
V
33 °C 10 km+ - 010° 010° 3 kt METAR LFSL 111900Z AUTO 01003KT CAVOK 33/11 Q1013 NOSIG
20:30
V
35 °C 10 km+ - 340° 340° 5 kt METAR LFSL 111830Z AUTO 34005KT 310V020 CAVOK 35/11 Q1013 NOSIG
20:00
V
36 °C 10 km+ - 310° 310° 6 kt METAR LFSL 111800Z AUTO 31006KT 290V350 CAVOK 36/11 Q1013 NOSIG
19:30
V
37 °C 10 km+ - 330° 330° 7 kt METAR LFSL 111730Z AUTO 33007KT 300V360 CAVOK 37/11 Q1013 NOSIG
19:00
V
37 °C 10 km+ - 310° 310° 6 kt METAR LFSL 111700Z AUTO 31006KT 270V350 CAVOK 37/10 Q1013 NOSIG
18:30
V
37 °C 10 km+ - 320° 320° 6 kt METAR LFSL 111630Z AUTO 32006KT 210V010 CAVOK 37/11 Q1013 NOSIG
18:00
V
37 °C 10 km+ - Var Var 5 kt METAR LFSL 111600Z AUTO VRB05KT CAVOK 37/11 Q1013 NOSIG
17:30
V
37 °C 10 km+ - 280° 280° 7 kt METAR LFSL 111530Z AUTO 28007KT 210V340 CAVOK 37/11 Q1013 NOSIG
17:00
V
37 °C 10 km+ - Var Var 4 kt METAR LFSL 111500Z AUTO VRB04KT CAVOK 37/11 Q1013 NOSIG
较旧的数据

我们和第三方通过cookies跟踪您在我们网站上的上网行为。如果您继续,我们认为您同意我们的cookie政策。 了解更多